Aeroporto :
LOGIN :

Iscrizione | Disclaimer

   EN    FR    IT 

 










Sommario :    VFR   VFR Marginale   IFR   IFR Intensivo   IFR Molto Intensivo
Visibilità : 
Base nubi : 
>= 8 km
>= 3000ft
5 / 8 km
1000 / 3000 ft
1500m / 5 km
500 / 1000 ft
800 / 1500m
200 / 500 ft
< 800m
< 200 ft
Simboli :   Temporali  Nebbia  Neve Forte  Precipitazioni Forti  Vento > 20 kt
SIGMETs :   Varie  Temporali  Ghiacco  Turbolenza  Onda orograficha  Ceneri Vulcaniche






- Altitudine del aeroporto : 231 ft
- Codice IATA : WTN


EGXW - RAF Waddington

ULTIMO METAR :
  • 240820Z 34013KT 9999 SCT022 BKN055 07/01 Q1017 TEMPO SCT025 RMK WHT TEMPO BLU

METARs OBSOLETI :
  • 240750Z 33011KT 9999 FEW017 BKN052 06/02 Q1017 TEMPO SCT017 RMK BLU TEMPO WHT
  • 240720Z 33010KT 9999 FEW018 BKN052 06/02 Q1017 NOSIG RMK BLU BLU
  • 240650Z 32009KT 9999 FEW018 BKN050 05/01 Q1017 NOSIG RMK BLU BLU
  • 240620Z 33009KT 9999 FEW034 BKN050 05/01 Q1017 NOSIG RMK BLU BLU
  • 240550Z 33010KT CAVOK 05/01 Q1018 NOSIG RMK BLU BLU
  • 240520Z 33008KT 9999 BKN048 04/01 Q1018 RMK BLU
  • 240450Z 32005KT 9999 BKN049 03/01 Q1018 RMK BLU
  • 240420Z 31008KT 9999 BKN048 03/01 Q1018 RMK BLU
  • 240350Z 31007KT 9999 BKN048 03/01 Q1018 RMK BLU
  • 240320Z AUTO 31007KT 9999 FEW048/// 04/01 Q1018

TAF TAF EGXW
Valido dal 24 a 06 ore il 25 a 00 ore UTC


240433Z 2406/2424 34010KT 9999 BKN040
PROB30
TEMPO 2407/2411 SCT022



MetMap, La meteo Aeronautica in un colpo d'occhio ! - Copyright ORBIFLY Dicembre 2007 - Disclaimer

ORBIFLY MET'MAP TEAM :

Programmazione e sviluppo : Alexandra Zaïnal
Concezione : Baudouin d'Aumeries
Supporto tecnico e logistico : Manuel Goepfert
Aiuto : Marc-Olivier Méhu
Aiuto per la traduzione : Arnaldo La Scala




FONTI E CREDITI :

   NOAA